Time;durP1;ratioP1;P1;durP2;ratioP2;P2;SDS_P1;SDS_P2;PMS_P1;PMS_P2;Temp;Humidity;BMP_temperature;BMP_pressure;BME280_temperature;BME280_humidity;BME280_pressure;Samples;Min_cycle;Max_cycle;Signal;HPM_P1;HPM_P2
2022/06/06 00:01:19;;;;;;;0.40;0.40;;;;;;;16.93;72.29;101450.19;5018773;28;20061;-78
2022/06/06 00:03:46;;;;;;;1.98;1.88;;;;;;;17.00;72.11;101446.38;5017401;28;20056;-78
2022/06/06 00:06:15;;;;;;;0.22;0.22;;;;;;;16.98;72.14;101448.22;5023473;28;20022;-78
2022/06/06 00:08:41;;;;;;;1.02;0.75;;;;;;;17.02;71.79;101441.81;5021509;28;20406;-78
2022/06/06 00:11:09;;;;;;;0.75;0.75;;;;;;;17.02;72.12;101432.91;5017921;28;20081;-78
2022/06/06 00:13:37;;;;;;;2.10;1.98;;;;;;;16.99;71.87;101444.63;5022008;28;20060;-78
2022/06/06 00:16:04;;;;;;;2.17;1.33;;;;;;;16.99;71.73;101439.25;5020293;28;20057;-78
2022/06/06 00:18:32;;;;;;;2.90;1.65;;;;;;;16.89;72.15;101438.69;5019515;28;20049;-78
2022/06/06 00:20:58;;;;;;;5.28;1.73;;;;;;;16.98;71.98;101433.03;5018588;28;20033;-78
2022/06/06 00:23:25;;;;;;;0.30;0.30;;;;;;;16.92;71.71;101433.28;5017752;28;20026;-78
2022/06/06 00:25:53;;;;;;;0.57;0.55;;;;;;;17.02;71.88;101435.59;5015677;28;20030;-78
2022/06/06 00:28:20;;;;;;;1.52;1.23;;;;;;;16.93;71.91;101440.34;5022907;28;20029;-78
2022/06/06 00:30:46;;;;;;;2.97;1.42;;;;;;;17.02;71.93;101424.88;5018202;28;20036;-78
2022/06/06 00:36:00;;;;;;;0.63;0.63;;;;;;;17.10;71.48;101437.03;5016346;28;20041;-78
2022/06/06 00:38:27;;;;;;;7.95;1.38;;;;;;;17.04;71.64;101429.25;5017744;28;20522;-79
2022/06/06 00:40:53;;;;;;;1.02;1.02;;;;;;;17.09;71.60;101429.09;5015838;28;20053;-79
2022/06/06 00:43:20;;;;;;;1.98;1.88;;;;;;;17.03;71.63;101424.81;5018486;28;20030;-79
2022/06/06 00:45:51;;;;;;;0.60;0.60;;;;;;;17.04;71.76;101426.56;5022575;28;20021;-78
2022/06/06 00:51:00;;;;;;;1.60;1.50;;;;;;;16.81;71.79;101422.94;5096101;27;20387;-78
2022/06/06 00:53:41;;;;;;;1.98;0.60;;;;;;;16.98;71.43;101419.66;5093515;28;20099;-77
2022/06/06 00:56:18;;;;;;;0.52;0.52;;;;;;;16.98;71.74;101413.41;5088259;28;20416;-78
2022/06/06 00:58:48;;;;;;;0.82;0.82;;;;;;;17.00;71.53;101419.59;5094762;28;20392;-78
2022/06/06 01:01:14;;;;;;;1.98;1.77;;;;;;;16.96;71.55;101409.94;5096016;28;20024;-78
2022/06/06 01:03:42;;;;;;;11.45;1.55;;;;;;;16.99;71.66;101401.78;5092444;28;20480;-78
2022/06/06 01:06:12;;;;;;;0.38;0.38;;;;;;;16.98;71.52;101402.72;5095202;28;20021;-77
2022/06/06 01:08:40;;;;;;;0.10;0.10;;;;;;;16.97;71.92;101404.53;5083956;28;20457;-77
2022/06/06 01:11:06;;;;;;;1.48;1.48;;;;;;;16.97;71.30;101401.84;5093131;28;20024;-77
2022/06/06 01:13:34;;;;;;;0.88;0.80;;;;;;;16.96;71.58;101407.28;5086245;28;20024;-78
2022/06/06 01:24:29;;;;;;;0.75;0.75;;;;;;;16.98;71.08;101397.34;5086460;27;1882225;-75
2022/06/06 01:27:21;;;;;;;0.30;0.30;;;;;;;16.91;71.03;101393.13;5127847;27;20070;-75
2022/06/06 01:29:55;;;;;;;0.77;0.77;;;;;;;16.82;70.73;101400.59;5107029;28;20036;-75
2022/06/06 01:32:23;;;;;;;0.57;0.57;;;;;;;16.81;70.58;101398.84;5102404;28;20492;-75
2022/06/06 01:34:53;;;;;;;0.20;0.20;;;;;;;16.63;70.94;101391.50;5106319;28;20439;-75
2022/06/06 01:37:40;;;;;;;3.80;2.03;;;;;;;16.81;71.14;101403.34;5098968;28;20070;-75
2022/06/06 01:40:11;;;;;;;2.05;0.63;;;;;;;16.80;70.83;101397.09;5105731;28;20422;-75
2022/06/06 01:48:10;;;;;;;1.30;1.27;;;;;;;16.82;71.03;101397.91;5108684;27;20411;-75
2022/06/06 01:50:39;;;;;;;2.17;1.10;;;;;;;16.76;70.69;101397.25;5106209;28;20031;-74
2022/06/06 01:53:08;;;;;;;1.92;1.70;;;;;;;16.84;70.85;101392.50;5102038;28;20028;-74
2022/06/06 01:55:38;;;;;;;1.77;1.73;;;;;;;16.95;70.45;101392.13;5110296;28;20063;-74
2022/06/06 01:58:08;;;;;;;0.65;0.65;;;;;;;16.96;70.64;101397.41;5099522;28;20111;-74
2022/06/06 02:00:36;;;;;;;1.15;1.10;;;;;;;16.94;70.83;101391.25;5109883;28;20558;-75
2022/06/06 02:03:03;;;;;;;0.10;0.10;;;;;;;16.82;70.67;101389.88;5109152;28;20059;-75
2022/06/06 02:05:30;;;;;;;0.93;0.93;;;;;;;16.94;70.58;101387.72;5112239;28;20032;-75
2022/06/06 02:07:57;;;;;;;0.30;0.30;;;;;;;16.90;70.61;101383.38;5106963;28;20543;-75
2022/06/06 02:10:24;;;;;;;4.15;2.00;;;;;;;16.88;70.52;101386.09;5109786;28;20047;-76
2022/06/06 02:12:52;;;;;;;1.70;0.63;;;;;;;16.98;70.18;101376.84;5097930;28;20035;-76
2022/06/06 02:15:22;;;;;;;1.15;1.15;;;;;;;17.05;70.09;101376.59;5102426;28;20107;-76
2022/06/06 02:17:50;;;;;;;0.25;0.25;;;;;;;16.99;69.95;101375.00;5111065;28;20024;-76
2022/06/06 02:20:18;;;;;;;0.35;0.35;;;;;;;17.08;70.24;101380.00;5103164;28;20080;-76
2022/06/06 02:22:44;;;;;;;0.90;0.65;;;;;;;16.93;70.08;101383.28;5105123;28;20504;-76
2022/06/06 02:25:12;;;;;;;0.82;0.75;;;;;;;16.98;69.90;101390.22;5109427;27;20032;-76
2022/06/06 02:27:40;;;;;;;0.70;0.70;;;;;;;16.98;70.01;101394.69;5102946;28;20111;-76
2022/06/06 02:30:10;;;;;;;0.85;0.85;;;;;;;16.95;70.06;101378.75;5107718;28;20083;-76
2022/06/06 02:32:36;;;;;;;1.00;1.00;;;;;;;17.04;69.86;101389.09;5103740;27;20044;-74
2022/06/06 02:35:02;;;;;;;2.65;2.47;;;;;;;17.03;69.87;101387.34;5097656;28;20028;-75
2022/06/06 02:37:31;;;;;;;6.65;1.17;;;;;;;17.12;69.91;101381.66;5095562;28;20462;-75
2022/06/06 02:39:57;;;;;;;1.00;0.95;;;;;;;17.06;69.75;101387.25;5100970;28;20441;-75
2022/06/06 02:42:23;;;;;;;1.95;1.85;;;;;;;16.84;70.43;101386.28;5099949;28;20123;-75
2022/06/06 02:44:50;;;;;;;5.47;1.42;;;;;;;16.94;70.19;101387.72;5105120;28;20514;-76
2022/06/06 02:47:16;;;;;;;0.63;0.63;;;;;;;16.84;70.09;101386.28;5103794;28;20032;-76
2022/06/06 02:49:42;;;;;;;1.13;1.00;;;;;;;16.94;69.72;101371.66;5102941;28;20035;-75
2022/06/06 02:52:08;;;;;;;1.08;1.00;;;;;;;17.01;69.58;101365.13;5104850;28;20524;-74
2022/06/06 02:54:34;;;;;;;0.10;0.10;;;;;;;17.02;69.72;101369.53;5102144;28;20524;-75
2022/06/06 02:57:03;;;;;;;1.67;1.58;;;;;;;16.98;69.48;101362.56;5105060;28;20028;-75
2022/06/06 02:59:31;;;;;;;0.50;0.43;;;;;;;17.03;69.09;101354.34;5087722;28;20490;-74
2022/06/06 03:01:57;;;;;;;2.35;1.38;;;;;;;16.89;69.62;101357.53;5090060;28;20028;-75
2022/06/06 03:04:23;;;;;;;0.60;0.60;;;;;;;16.91;69.52;101366.38;5087112;28;20035;-75
2022/06/06 03:21:03;;;;;;;0.85;0.85;;;;;;;16.98;69.97;101365.22;5068788;28;20402;-74
2022/06/06 03:24:09;;;;;;;1.75;1.65;;;;;;;17.07;69.69;101367.56;5065338;28;20027;-75
2022/06/06 03:32:20;;;;;;;2.08;1.98;;;;;;;17.02;69.73;101357.97;5108894;27;20363;-75
2022/06/06 03:34:59;;;;;;;1.15;1.05;;;;;;;17.07;69.24;101364.00;5088465;28;20103;-75
2022/06/06 03:37:37;;;;;;;2.13;1.48;;;;;;;16.99;69.40;101353.59;5083464;28;20043;-74
2022/06/06 03:43:01;;;;;;;0.20;0.20;;;;;;;17.10;69.08;101350.50;5112316;27;20407;-74
2022/06/06 03:51:11;;;;;;;0.95;0.55;;;;;;;17.21;69.60;101359.00;5105594;27;20400;-75
2022/06/06 03:53:56;;;;;;;0.60;0.60;;;;;;;17.29;69.54;101358.69;5106015;28;20048;-75
2022/06/06 03:59:03;;;;;;;0.40;0.40;;;;;;;17.37;69.48;101361.94;5064334;28;20940;-75
2022/06/06 04:01:34;;;;;;;0.77;0.77;;;;;;;17.38;69.43;101366.31;5045743;28;20033;-75
2022/06/06 04:04:01;;;;;;;0.98;0.98;;;;;;;17.47;69.17;101367.78;5046511;28;20402;-75
2022/06/06 04:06:29;;;;;;;1.58;1.48;;;;;;;17.41;69.57;101362.69;5045888;28;20474;-75
2022/06/06 04:08:56;;;;;;;2.33;1.50;;;;;;;17.32;69.61;101369.28;5046512;28;20787;-75
2022/06/06 04:25:21;;;;;;;0.55;0.55;;;;;;;17.33;68.27;101365.66;5107993;27;20132;-76
2022/06/06 04:28:15;;;;;;;0.65;0.65;;;;;;;17.33;68.59;101362.97;5109197;28;20035;-76
2022/06/06 04:33:45;;;;;;;0.52;0.52;;;;;;;17.46;67.93;101388.34;5091562;28;20864;-76
2022/06/06 04:36:28;;;;;;;0.15;0.15;;;;;;;17.49;67.74;101368.59;5091074;28;20032;-76
2022/06/06 04:39:10;;;;;;;0.25;0.25;;;;;;;17.42;67.41;101367.97;5086665;28;20035;-75
2022/06/06 04:49:40;;;;;;;0.73;0.73;;;;;;;17.27;66.28;101381.97;5062999;28;20049;-75
2022/06/06 04:52:08;;;;;;;0.10;0.10;;;;;;;17.22;66.08;101391.97;5051592;28;20033;-75
2022/06/06 04:54:36;;;;;;;0.38;0.38;;;;;;;17.11;65.87;101385.25;5053080;28;20468;-75
2022/06/06 04:57:03;;;;;;;0.20;0.20;;;;;;;17.08;65.72;101380.00;5040970;28;20483;-75
2022/06/06 04:59:31;;;;;;;0.10;0.10;;;;;;;17.13;65.76;101378.03;5047702;28;20037;-74
2022/06/06 05:01:59;;;;;;;30.95;2.15;;;;;;;17.24;65.52;101374.91;5044980;28;20134;-75
2022/06/06 05:04:26;;;;;;;0.10;0.10;;;;;;;17.29;65.43;101389.00;5053597;28;20051;-75
2022/06/06 05:15:39;;;;;;;0.90;0.85;;;;;;;17.13;63.24;101380.72;5113367;27;20408;-76
2022/06/06 05:18:42;;;;;;;0.10;0.10;;;;;;;17.33;63.11;101373.69;5092329;28;20024;-75
2022/06/06 05:27:12;;;;;;;0.00;0.00;;;;;;;17.20;62.87;101372.44;5106855;27;20415;-75
2022/06/06 05:30:05;;;;;;;0.10;0.10;;;;;;;17.25;62.86;101362.41;5106049;28;20456;-75
2022/06/06 05:38:18;;;;;;;0.10;0.10;;;;;;;17.22;62.74;101374.13;5074094;27;20145;-75
2022/06/06 05:40:58;;;;;;;0.20;0.20;;;;;;;17.26;62.47;101367.72;5068764;28;20032;-76
2022/06/06 05:44:04;;;;;;;0.10;0.10;;;;;;;17.38;62.27;101370.81;5070877;28;20040;-76
2022/06/06 05:49:38;;;;;;;0.10;0.10;;;;;;;17.34;62.05;101377.25;5058403;28;20408;-75
2022/06/06 05:55:11;;;;;;;0.10;0.10;;;;;;;17.49;62.21;101379.31;5089808;27;20409;-76
2022/06/06 05:58:05;;;;;;;0.68;0.38;;;;;;;17.57;62.51;101370.94;5090245;28;20040;-75
2022/06/06 06:06:12;;;;;;;0.10;0.10;;;;;;;17.46;63.25;101377.63;5106575;27;20915;-74
2022/06/06 06:11:29;;;;;;;0.30;0.30;;;;;;;17.41;63.34;101376.94;5021259;28;20367;-75
2022/06/06 06:16:50;;;;;;;0.10;0.10;;;;;;;17.37;63.45;101380.69;5063393;28;20797;-75
2022/06/06 06:19:20;;;;;;;0.10;0.10;;;;;;;17.39;63.54;101400.22;5061904;28;20032;-75
2022/06/06 06:21:57;;;;;;;0.70;0.55;;;;;;;17.44;63.61;101392.88;5060705;28;20544;-74
2022/06/06 06:24:29;;;;;;;0.10;0.10;;;;;;;17.58;62.49;101399.50;5065477;28;20028;-75
2022/06/06 06:26:57;;;;;;;0.38;0.38;;;;;;;17.64;62.99;101401.91;5066447;28;20070;-75
2022/06/06 06:29:24;;;;;;;0.38;0.30;;;;;;;17.76;62.61;101393.38;5059179;28;20025;-75
2022/06/06 06:40:20;;;;;;;0.15;0.15;;;;;;;17.85;61.67;101412.72;5087062;27;20412;-75
2022/06/06 06:45:56;;;;;;;0.65;0.65;;;;;;;17.75;60.88;101401.50;5066256;28;20399;-74
2022/06/06 06:48:36;;;;;;;0.10;0.10;;;;;;;17.71;60.95;101400.75;5047949;28;20037;-75
2022/06/06 06:51:12;;;;;;;0.32;0.32;;;;;;;17.85;60.42;101413.56;5042416;28;20029;-73
2022/06/06 07:14:24;;;;;;;0.20;0.20;;;;;;;18.42;58.97;101424.59;5067761;28;20398;-74
2022/06/06 07:16:56;;;;;;;0.30;0.30;;;;;;;18.46;58.87;101424.47;5066349;28;20119;-75
2022/06/06 07:22:06;;;;;;;0.00;0.00;;;;;;;18.40;58.83;101421.09;5067545;28;20421;-76
2022/06/06 07:24:33;;;;;;;0.10;0.10;;;;;;;18.31;58.92;101429.56;5051448;28;20029;-75
2022/06/06 07:27:01;;;;;;;0.10;0.10;;;;;;;18.32;58.80;101423.25;5050680;28;20124;-75
2022/06/06 07:29:28;;;;;;;1.77;1.67;;;;;;;18.38;58.49;101432.81;5046824;28;20037;-76
2022/06/06 07:40:20;;;;;;;0.15;0.15;;;;;;;18.68;57.43;101421.69;5088441;27;1209081;-76
2022/06/06 07:43:08;;;;;;;0.10;0.10;;;;;;;18.70;57.53;101423.34;5099515;28;20098;-76
2022/06/06 07:45:48;;;;;;;0.10;0.10;;;;;;;18.73;57.30;101430.44;5103887;28;20036;-76
2022/06/06 07:51:24;;;;;;;0.10;0.10;;;;;;;18.92;55.69;101438.53;5126345;27;20390;-75
2022/06/06 07:56:56;;;;;;;0.10;0.10;;;;;;;18.95;56.33;101416.91;5065002;28;21326;-76
2022/06/06 08:02:34;;;;;;;0.10;0.10;;;;;;;19.01;56.30;101421.13;5098252;27;20401;-76
2022/06/06 08:05:27;;;;;;;0.10;0.10;;;;;;;19.06;56.30;101430.69;5073629;28;20029;-76
2022/06/06 08:10:47;;;;;;;0.10;0.10;;;;;;;19.45;56.18;101414.59;5061057;28;20422;-77
2022/06/06 08:19:08;;;;;;;0.10;0.10;;;;;;;19.58;54.91;101401.41;5081153;27;20476;-76
2022/06/06 08:21:46;;;;;;;0.20;0.20;;;;;;;19.54;55.59;101406.09;5058550;28;20550;-76
2022/06/06 08:24:20;;;;;;;0.10;0.10;;;;;;;19.78;55.16;101406.69;5053248;28;20033;-76
2022/06/06 08:26:48;;;;;;;0.30;0.30;;;;;;;19.79;54.93;101429.06;5060274;28;20566;-76
2022/06/06 08:29:17;;;;;;;0.10;0.10;;;;;;;19.97;54.72;101409.34;5046136;28;20032;-76
2022/06/06 08:31:43;;;;;;;0.10;0.10;;;;;;;19.95;54.08;101405.00;5056903;28;20094;-76
2022/06/06 08:34:09;;;;;;;0.10;0.10;;;;;;;19.89;54.23;101419.66;5066980;28;20036;-76
2022/06/06 08:37:04;;;;;;;0.28;0.28;;;;;;;19.78;53.86;101412.06;5052293;28;20513;-76
2022/06/06 08:40:10;;;;;;;0.10;0.10;;;;;;;19.87;54.46;101411.63;5062151;28;20051;-76
2022/06/06 08:45:37;;;;;;;0.20;0.20;;;;;;;19.53;54.46;101402.53;5067515;28;20403;-74
2022/06/06 08:48:43;;;;;;;0.47;0.47;;;;;;;19.52;53.27;101406.16;5059228;28;20037;-74
2022/06/06 08:54:30;;;;;;;0.28;0.28;;;;;;;19.83;54.01;101406.50;5045275;28;20408;-75
2022/06/06 09:09:37;;;;;;;0.10;0.10;;;;;;;20.58;48.86;101404.44;5109593;27;1221380;-77
2022/06/06 09:15:27;;;;;;;0.10;0.10;;;;;;;20.27;49.21;101399.81;5092987;27;20909;-75
2022/06/06 09:35:16;;;;;;;0.50;0.50;;;;;;;18.42;59.01;101421.91;5095704;27;20348;-75
2022/06/06 09:43:32;;;;;;;0.10;0.10;;;;;;;17.57;63.21;101425.41;5107528;27;20132;-73
2022/06/06 09:52:27;;;;;;;0.10;0.10;;;;;;;16.13;64.42;101422.63;5077590;27;20170;-74
2022/06/06 10:01:25;;;;;;;0.10;0.10;;;;;;;16.33;67.58;101415.72;5044861;28;20478;-83
2022/06/06 10:07:04;;;;;;;0.10;0.10;;;;;;;16.91;68.72;101398.47;5086360;27;20416;-81
2022/06/06 10:09:51;;;;;;;0.10;0.10;;;;;;;17.26;68.21;101399.84;5091251;28;20028;-82
2022/06/06 10:18:12;;;;;;;0.10;0.10;;;;;;;17.75;65.13;101391.63;5100523;27;20130;-81
2022/06/06 10:23:41;;;;;;;0.17;0.17;;;;;;;17.81;66.59;101405.72;5108168;27;20392;-82
2022/06/06 10:26:27;;;;;;;0.10;0.10;;;;;;;17.57;66.83;101400.41;5115070;28;20790;-80
2022/06/06 10:34:59;;;;;;;0.10;0.10;;;;;;;18.11;66.06;101393.72;5066812;28;20426;-80
2022/06/06 10:37:53;;;;;;;0.20;0.20;;;;;;;18.07;65.61;101399.31;5044145;28;20044;-81
2022/06/06 10:52:10;;;;;;;0.40;0.40;;;;;;;18.36;63.92;101387.28;5128501;27;20943;-84
2022/06/06 11:06:12;;;;;;;0.10;0.10;;;;;;;18.31;64.43;101380.41;5124096;27;20384;-83
2022/06/06 11:09:11;;;;;;;2.60;1.92;;;;;;;18.50;64.33;101372.41;5092106;28;20555;-83
2022/06/06 11:17:24;;;;;;;0.60;0.30;;;;;;;18.57;64.55;101372.06;5101087;27;1292622;-82
2022/06/06 11:23:03;;;;;;;0.10;0.10;;;;;;;18.26;64.41;101380.59;5111052;27;20423;-80
2022/06/06 11:28:46;;;;;;;0.10;0.10;;;;;;;17.70;65.71;101380.22;5054223;28;20392;-80
2022/06/06 11:34:30;;;;;;;0.10;0.10;;;;;;;17.63;66.22;101378.72;5110162;27;20335;-79
2022/06/06 11:37:29;;;;;;;0.10;0.10;;;;;;;17.63;65.16;101376.06;5106428;28;20051;-80
2022/06/06 11:40:35;;;;;;;0.10;0.10;;;;;;;17.75;65.56;101380.91;5085239;28;20051;-80
2022/06/06 11:49:10;;;;;;;0.10;0.10;;;;;;;17.82;65.77;101372.59;5053206;28;20617;-81
2022/06/06 11:52:10;;;;;;;0.32;0.32;;;;;;;17.84;65.66;101363.56;5026848;28;20116;-81
2022/06/06 11:55:09;;;;;;;0.47;0.47;;;;;;;17.76;66.01;101366.56;5027190;28;20032;-80
2022/06/06 11:58:12;;;;;;;0.10;0.10;;;;;;;17.63;65.87;101373.38;5026958;28;20041;-80
2022/06/06 12:01:06;;;;;;;0.10;0.10;;;;;;;17.60;66.10;101371.69;5028633;28;20037;-80
2022/06/06 12:04:03;;;;;;;0.10;0.10;;;;;;;17.97;65.82;101361.28;5028063;28;20087;-81
2022/06/06 12:23:53;;;;;;;0.38;0.38;;;;;;;17.95;67.03;101361.34;5111440;27;20903;-81
2022/06/06 12:34:45;;;;;;;0.10;0.10;;;;;;;17.22;70.05;101386.63;5110849;27;20391;-81
2022/06/06 12:37:34;;;;;;;0.30;0.30;;;;;;;17.33;69.56;101379.03;5111591;28;20398;-81
2022/06/06 12:43:06;;;;;;;0.30;0.30;;;;;;;16.88;70.67;101378.06;5109760;27;20927;-81
2022/06/06 12:46:03;;;;;;;0.10;0.10;;;;;;;16.97;71.23;101376.88;5111871;28;20040;-81
2022/06/06 12:48:58;;;;;;;1.40;0.43;;;;;;;16.95;70.87;101394.81;5121572;27;20035;-81
2022/06/06 12:57:06;;;;;;;0.10;0.10;;;;;;;16.90;70.68;101381.56;5124412;27;20384;-83
2022/06/06 12:59:57;;;;;;;0.10;0.10;;;;;;;16.74;70.07;101391.97;5091576;28;20032;-82
2022/06/06 13:03:03;;;;;;;0.10;0.10;;;;;;;16.92;69.89;101389.56;5091361;28;20059;-83
2022/06/06 13:05:51;;;;;;;0.10;0.10;;;;;;;16.94;69.44;101385.03;5090341;28;20029;-81
2022/06/06 13:11:34;;;;;;;0.80;0.80;;;;;;;16.63;68.50;101410.22;5152970;27;20396;-79
2022/06/06 13:14:38;;;;;;;0.10;0.10;;;;;;;16.47;68.55;101394.72;5147698;27;20408;-81
2022/06/06 13:17:16;;;;;;;0.10;0.10;;;;;;;16.38;68.41;101383.50;5150724;27;20038;-81
2022/06/06 13:28:18;;;;;;;0.10;0.10;;;;;;;16.70;68.15;101406.41;5086540;27;20416;-84
2022/06/06 13:45:28;;;;;;;0.10;0.10;;;;;;;16.66;68.48;101407.44;5111842;27;20387;-84
2022/06/06 13:56:50;;;;;;;0.77;0.77;;;;;;;16.55;67.92;101406.94;5092993;27;1310432;-84
2022/06/06 13:59:45;;;;;;;0.10;0.10;;;;;;;16.65;67.74;101405.69;5095715;28;20028;-84
2022/06/06 14:07:56;;;;;;;0.50;0.50;;;;;;;16.58;68.13;101410.38;5105506;27;1188130;-81
2022/06/06 14:10:33;;;;;;;0.10;0.10;;;;;;;16.66;67.92;101426.19;5120961;27;20050;-82
2022/06/06 14:13:39;;;;;;;0.10;0.10;;;;;;;16.73;67.57;101426.81;5127201;28;20031;-81
2022/06/06 14:16:29;;;;;;;0.20;0.20;;;;;;;16.68;67.21;101415.41;5113016;28;20061;-82
2022/06/06 14:19:07;;;;;;;0.10;0.10;;;;;;;16.69;67.08;101418.03;5121642;28;20036;-82
2022/06/06 14:21:36;;;;;;;0.10;0.10;;;;;;;16.31;67.72;101426.50;5131021;27;20501;-83
2022/06/06 14:24:08;;;;;;;0.10;0.10;;;;;;;16.44;67.15;101421.56;5116253;28;20024;-82
2022/06/06 14:26:35;;;;;;;;;;;;;;;16.52;67.17;101440.03;5112103;28;20032;-83
2022/06/06 14:29:07;;;;;;;0.10;0.10;;;;;;;16.20;68.57;101433.13;5115114;28;20515;-82
2022/06/06 14:31:41;;;;;;;0.20;0.20;;;;;;;16.27;67.69;101445.34;5119874;28;20023;-81
2022/06/06 14:34:44;;;;;;;0.40;0.40;;;;;;;16.27;67.93;101445.34;5115789;28;20028;-80
2022/06/06 14:37:16;;;;;;;0.52;0.40;;;;;;;16.21;68.24;101445.56;5109743;28;20049;-82
2022/06/06 14:39:52;;;;;;;0.10;0.10;;;;;;;15.91;68.93;101457.22;5111772;28;20047;-81
2022/06/06 14:42:27;;;;;;;0.20;0.20;;;;;;;15.93;68.77;101447.34;5119543;28;20054;-78
2022/06/06 14:47:56;;;;;;;0.32;0.32;;;;;;;16.09;68.92;101447.72;5086506;27;20476;-81
2022/06/06 14:50:57;;;;;;;0.10;0.10;;;;;;;15.91;69.95;101449.19;5088140;28;20043;-83
2022/06/06 14:53:20;;;;;;;0.10;0.10;;;;;;;15.97;69.46;101449.00;5081613;28;20048;-82
2022/06/06 14:55:50;;;;;;;0.10;0.10;;;;;;;15.94;69.81;101448.25;5088411;28;20059;-82
2022/06/06 14:58:21;;;;;;;0.10;0.10;;;;;;;16.06;70.14;101452.31;5084150;28;20028;-82
2022/06/06 15:00:53;;;;;;;0.65;0.40;;;;;;;16.18;69.81;101471.47;5072960;28;20032;-84
2022/06/06 15:03:31;;;;;;;0.17;0.17;;;;;;;16.20;70.00;101470.53;5084116;28;20059;-83
2022/06/06 15:06:07;;;;;;;0.10;0.10;;;;;;;16.19;69.45;101453.66;5076309;28;20028;-84
2022/06/06 15:08:40;;;;;;;0.10;0.10;;;;;;;16.11;69.75;101464.59;5082716;28;20462;-83
2022/06/06 15:11:12;;;;;;;0.00;0.00;;;;;;;16.26;69.37;101456.97;5083434;28;20043;-82
2022/06/06 15:13:44;;;;;;;0.10;0.10;;;;;;;16.06;70.00;101466.53;5072032;28;20024;-81
2022/06/06 15:16:12;;;;;;;0.10;0.10;;;;;;;16.11;69.39;101480.66;5077737;28;20033;-82
2022/06/06 15:18:46;;;;;;;0.10;0.10;;;;;;;15.98;69.88;101461.44;5074476;28;20035;-83
2022/06/06 15:21:12;;;;;;;0.20;0.20;;;;;;;16.07;69.96;101457.59;5083842;28;20035;-83
2022/06/06 15:23:53;;;;;;;0.10;0.10;;;;;;;16.15;69.86;101463.56;5083451;28;20024;-83
2022/06/06 15:26:33;;;;;;;0.20;0.20;;;;;;;16.14;70.39;101468.97;5087404;28;20502;-83
2022/06/06 15:37:40;;;;;;;0.10;0.10;;;;;;;16.25;70.98;101474.81;5118765;27;20421;-77
2022/06/06 15:43:22;;;;;;;0.05;0.05;;;;;;;16.55;70.21;101472.03;5059083;28;20410;-78
2022/06/06 15:57:01;;;;;;;0.10;0.10;;;;;;;16.37;69.44;101494.91;5100535;27;1246669;-79
2022/06/06 15:59:53;;;;;;;0.52;0.52;;;;;;;16.46;69.65;101491.94;5130816;28;20104;-80
2022/06/06 16:02:55;;;;;;;0.20;0.20;;;;;;;16.28;70.02;101500.59;5125010;28;20501;-78
2022/06/06 16:05:43;;;;;;;0.10;0.10;;;;;;;16.33;70.02;101498.63;5126793;28;20027;-85
2022/06/06 16:14:30;;;;;;;0.10;0.10;;;;;;;16.23;69.08;101505.22;5111574;27;20408;-82
2022/06/06 16:16:59;;;;;;;0.00;0.00;;;;;;;16.16;68.57;101504.53;5105325;28;20066;-78
2022/06/06 16:19:47;;;;;;;0.10;0.10;;;;;;;16.09;68.63;101514.56;5096128;28;20036;-78
2022/06/06 16:25:16;;;;;;;0.10;0.10;;;;;;;15.78;68.87;101512.81;5087211;27;2036666;-79
2022/06/06 16:27:51;;;;;;;0.10;0.10;;;;;;;15.79;68.86;101503.88;5129759;28;20035;-78
2022/06/06 16:35:41;;;;;;;0.52;0.52;;;;;;;15.91;68.99;101507.13;4965228;27;4024007;-79
2022/06/06 16:38:29;;;;;;;0.10;0.10;;;;;;;15.89;69.04;101511.63;5079255;28;20036;-79
2022/06/06 16:50:22;;;;;;;0.20;0.20;;;;;;;16.02;68.76;101496.97;5136921;28;20020;-80
2022/06/06 16:53:08;;;;;;;0.10;0.10;;;;;;;15.96;68.53;101497.16;5124513;28;20034;-79
2022/06/06 16:55:55;;;;;;;0.10;0.10;;;;;;;15.91;68.70;101512.47;5127461;28;20028;-78
2022/06/06 17:01:24;;;;;;;0.10;0.10;;;;;;;15.78;67.53;101511.97;5075854;28;20410;-80
2022/06/06 17:03:57;;;;;;;0.10;0.10;;;;;;;15.72;67.82;101515.69;5058167;28;20072;-79
2022/06/06 17:12:32;;;;;;;0.10;0.10;;;;;;;15.79;67.06;101514.56;5127734;27;21529;-76
2022/06/06 17:20:33;;;;;;;0.10;0.10;;;;;;;15.84;67.58;101512.66;5113350;27;1246303;-77
2022/06/06 17:31:54;;;;;;;0.28;0.28;;;;;;;16.06;66.97;101533.34;5100434;27;1265067;-80
2022/06/06 17:34:29;;;;;;;0.10;0.10;;;;;;;16.07;67.17;101516.41;5124822;27;20042;-78
2022/06/06 17:39:50;;;;;;;0.10;0.10;;;;;;;16.06;67.03;101535.16;5118940;27;20416;-79
2022/06/06 17:42:29;;;;;;;0.20;0.20;;;;;;;16.14;67.20;101531.31;5070815;28;20047;-78
2022/06/06 17:53:26;;;;;;;0.10;0.10;;;;;;;16.32;67.10;101532.53;5108395;27;1340302;-79
2022/06/06 17:58:45;;;;;;;0.05;0.05;;;;;;;16.31;66.37;101537.91;5064371;27;20120;-81
2022/06/06 18:01:41;;;;;;;0.17;0.17;;;;;;;16.41;66.06;101535.81;5068037;28;20028;-77
2022/06/06 18:07:42;;;;;;;0.10;0.10;;;;;;;16.51;66.28;101523.91;5106413;27;1384583;-78
2022/06/06 18:10:26;;;;;;;0.10;0.10;;;;;;;16.40;64.92;101520.69;5104741;28;20525;-79
2022/06/06 18:13:21;;;;;;;0.03;0.03;;;;;;;16.47;64.28;101519.56;5105574;28;20444;-79
2022/06/06 18:16:03;;;;;;;0.40;0.40;;;;;;;16.49;64.02;101525.72;5101898;28;20044;-79
2022/06/06 18:21:38;;;;;;;0.10;0.10;;;;;;;16.50;64.18;101519.47;5121049;27;20054;-78
2022/06/06 18:27:12;;;;;;;0.10;0.10;;;;;;;16.37;63.54;101521.66;5143725;27;20379;-77
2022/06/06 18:29:57;;;;;;;0.25;0.25;;;;;;;16.42;64.49;101530.41;5146857;27;20023;-83
2022/06/06 18:35:36;;;;;;;0.10;0.10;;;;;;;16.50;63.61;101523.00;5072760;27;20409;-79
2022/06/06 18:38:12;;;;;;;0.10;0.10;;;;;;;16.46;63.44;101513.34;5058556;28;20048;-79
2022/06/06 18:40:41;;;;;;;0.10;0.10;;;;;;;16.37;63.62;101516.31;5037598;28;20068;-79
2022/06/06 18:49:07;;;;;;;0.32;0.32;;;;;;;16.40;63.82;101532.28;5118203;27;20412;-77
2022/06/06 18:51:40;;;;;;;0.75;0.75;;;;;;;16.37;63.89;101535.03;5087719;28;20063;-80
2022/06/06 18:54:19;;;;;;;0.10;0.10;;;;;;;16.38;64.45;101522.56;5098896;28;20028;-78
2022/06/06 18:57:03;;;;;;;0.28;0.28;;;;;;;16.38;64.27;101534.13;5089745;28;20020;-77
2022/06/06 18:59:48;;;;;;;0.20;0.20;;;;;;;16.37;64.34;101527.00;5095439;28;20584;-82
2022/06/06 19:02:46;;;;;;;0.10;0.10;;;;;;;16.45;64.62;101529.44;5101414;28;20513;-80
2022/06/06 19:05:59;;;;;;;0.40;0.40;;;;;;;16.44;64.90;101527.69;5098513;28;20048;-78
2022/06/06 19:08:32;;;;;;;0.20;0.20;;;;;;;16.34;65.11;101529.81;5097510;28;20039;-77
2022/06/06 19:11:09;;;;;;;;;;;;;;;16.38;64.70;101538.59;5093210;28;20036;-79
2022/06/06 19:13:35;;;;;;;0.30;0.30;;;;;;;16.23;64.94;101529.28;5090591;28;19912;-79
2022/06/06 19:16:15;;;;;;;0.32;0.32;;;;;;;16.26;64.18;101535.41;5089991;28;20037;-79
2022/06/06 19:18:46;;;;;;;0.10;0.10;;;;;;;16.23;64.53;101529.28;5084429;28;20088;-78
2022/06/06 19:21:23;;;;;;;0.10;0.10;;;;;;;16.24;64.30;101506.97;5093574;28;20039;-78
2022/06/06 19:24:04;;;;;;;0.20;0.20;;;;;;;16.11;64.57;101518.06;5095165;28;20055;-77
2022/06/06 19:26:42;;;;;;;0.25;0.25;;;;;;;16.16;64.79;101512.53;5102417;28;20027;-82
2022/06/06 19:29:26;;;;;;;0.10;0.10;;;;;;;16.10;63.97;101521.66;5101318;28;20012;-79
2022/06/06 19:37:55;;;;;;;0.10;0.10;;;;;;;16.06;64.50;101528.00;5122448;27;20044;-82
2022/06/06 19:40:29;;;;;;;0.17;0.17;;;;;;;16.16;64.70;101518.78;5098193;28;20033;-77
2022/06/06 19:53:48;;;;;;;0.10;0.10;;;;;;;16.29;64.98;101513.03;5116505;27;1257534;-84
2022/06/06 19:59:26;;;;;;;0.00;0.00;;;;;;;16.14;65.42;101515.28;5098340;27;1387405;-79
2022/06/06 20:02:01;;;;;;;0.10;0.10;;;;;;;16.36;65.27;101525.25;5135891;27;20023;-82
2022/06/06 20:04:36;;;;;;;0.28;0.28;;;;;;;16.30;66.06;101514.78;5138257;27;20080;-81
2022/06/06 20:07:25;;;;;;;0.55;0.55;;;;;;;16.24;66.14;101517.66;5126720;28;20515;-80
2022/06/06 20:23:28;;;;;;;0.00;0.00;;;;;;;16.29;66.70;101507.69;6189400;22;1379184;-83
2022/06/06 20:25:57;;;;;;;0.10;0.10;;;;;;;16.29;66.75;101513.03;6239415;23;20008;-84
2022/06/06 20:28:35;;;;;;;0.10;0.10;;;;;;;16.28;67.29;101516.63;6239377;23;20407;-84
2022/06/06 20:34:07;;;;;;;0.30;0.30;;;;;;;16.20;67.27;101513.31;6241833;23;20023;-84